Time;durP1;ratioP1;P1;durP2;ratioP2;P2;SDS_P1;SDS_P2;PMS_P1;PMS_P2;Temp;Humidity;BMP_temperature;BMP_pressure;BME280_temperature;BME280_humidity;BME280_pressure;Samples;Min_cycle;Max_cycle;Signal;HPM_P1;HPM_P2
2023/09/28 00:01:18;;;;;;;;;;;17.60;99.90;;;;;;4925308;29;19927;-84
2023/09/28 00:03:45;;;;;;;;;;;17.50;99.90;;;;;;4924831;29;19927;-84
2023/09/28 00:06:10;;;;;;;;;;;17.50;99.90;;;;;;4927009;28;19931;-83
2023/09/28 00:08:36;;;;;;;;;;;17.50;99.90;;;;;;4924450;29;19938;-85
2023/09/28 00:11:02;;;;;;;;;;;17.50;99.90;;;;;;4909063;28;20908;-84
2023/09/28 00:13:28;;;;;;;;;;;17.50;99.90;;;;;;4936793;28;19973;-86
2023/09/28 00:15:54;;;;;;;;;;;17.50;99.90;;;;;;4922552;28;20017;-85
2023/09/28 00:18:19;;;;;;;;;;;17.50;99.90;;;;;;4927205;29;21717;-84
2023/09/28 00:20:45;;;;;;;;;;;17.50;99.90;;;;;;4926248;28;20397;-84
2023/09/28 00:23:11;;;;;;;;;;;17.50;99.90;;;;;;4926008;29;19931;-84
2023/09/28 00:25:37;;;;;;;;;;;17.50;99.90;;;;;;4926150;29;19981;-84
2023/09/28 00:28:03;;;;;;;;;;;17.60;99.90;;;;;;4926825;28;20386;-87
2023/09/28 00:30:28;;;;;;;;;;;17.60;99.90;;;;;;4935931;28;20025;-87
2023/09/28 00:32:54;;;;;;;;;;;17.60;99.90;;;;;;4924517;29;19935;-84
2023/09/28 00:35:20;;;;;;;;;;;17.50;99.90;;;;;;4924879;28;20432;-85
2023/09/28 00:37:49;;;;;;;;;;;17.60;99.90;;;;;;4924833;29;19931;-83
2023/09/28 00:40:28;;;;;;;;;;;17.60;99.90;;;;;;4926450;29;20029;-87
2023/09/28 00:42:54;;;;;;;;;;;17.60;99.90;;;;;;4925854;28;20030;-87
2023/09/28 00:45:21;;;;;;;;;;;17.60;99.90;;;;;;4926038;29;19934;-84
2023/09/28 00:47:50;;;;;;;;;;;17.60;99.90;;;;;;4908937;29;19927;-83
2023/09/28 00:50:20;;;;;;;;;;;17.60;99.90;;;;;;4926622;29;19974;-85
2023/09/28 00:52:54;;;;;;;;;;;17.60;99.90;;;;;;4925643;29;20382;-84
2023/09/28 00:55:20;;;;;;;;;;;17.60;99.90;;;;;;4924527;28;19954;-87
2023/09/28 00:57:46;;;;;;;;;;;17.70;99.90;;;;;;4925708;29;20374;-85
2023/09/28 01:00:21;;;;;;;;;;;17.70;99.90;;;;;;4926906;29;19927;-85
2023/09/28 01:02:51;;;;;;;;;;;17.70;99.90;;;;;;4934488;28;20646;-84
2023/09/28 01:05:26;;;;;;;;;;;17.70;99.90;;;;;;4922614;29;19950;-84
2023/09/28 01:07:52;;;;;;;;;;;17.70;99.90;;;;;;4924197;29;19934;-85
2023/09/28 01:10:23;;;;;;;;;;;17.70;99.90;;;;;;4925424;29;19931;-84
2023/09/28 01:12:49;;;;;;;;;;;17.70;99.90;;;;;;4925211;29;19957;-84
2023/09/28 01:15:14;;;;;;;;;;;17.80;99.90;;;;;;4912359;28;19938;-86
2023/09/28 01:17:40;;;;;;;;;;;17.80;99.90;;;;;;4925236;29;20286;-84
2023/09/28 01:20:23;;;;;;;;;;;17.90;99.90;;;;;;4927252;28;19931;-83
2023/09/28 01:22:49;;;;;;;;;;;17.80;99.90;;;;;;4922406;29;19926;-84
2023/09/28 01:25:15;;;;;;;;;;;17.80;99.90;;;;;;4924817;29;20176;-85
2023/09/28 01:27:46;;;;;;;;;;;17.80;99.90;;;;;;4928016;29;20616;-83
2023/09/28 01:30:12;;;;;;;;;;;17.70;99.90;;;;;;4929736;29;20021;-84
2023/09/28 01:32:38;;;;;;;;;;;17.70;99.90;;;;;;4929586;29;20095;-86
2023/09/28 01:35:04;;;;;;;;;;;17.70;99.90;;;;;;4929404;29;19931;-86
2023/09/28 01:37:33;;;;;;;;;;;17.60;99.90;;;;;;4926364;29;20378;-83
2023/09/28 01:39:59;;;;;;;;;;;17.60;99.90;;;;;;4938581;28;19926;-86
2023/09/28 01:42:24;;;;;;;;;;;17.60;99.90;;;;;;4929096;28;19941;-86
2023/09/28 01:44:50;;;;;;;;;;;17.50;99.90;;;;;;4936986;28;20062;-88
2023/09/28 01:47:15;;;;;;;;;;;17.50;99.90;;;;;;4934944;28;19926;-83
2023/09/28 01:49:41;;;;;;;;;;;17.50;99.90;;;;;;4928665;28;19938;-84
2023/09/28 01:52:07;;;;;;;;;;;17.40;99.90;;;;;;4930230;29;20401;-83
2023/09/28 01:54:32;;;;;;;;;;;17.40;99.90;;;;;;4928534;28;19940;-86
2023/09/28 01:56:58;;;;;;;;;;;17.30;99.90;;;;;;4927323;29;20021;-84
2023/09/28 01:59:23;;;;;;;;;;;17.30;99.90;;;;;;4928306;28;19930;-85
2023/09/28 02:01:50;;;;;;;;;;;17.30;99.90;;;;;;4941214;28;19927;-84
2023/09/28 02:04:16;;;;;;;;;;;17.20;99.90;;;;;;4927799;29;20713;-87
2023/09/28 02:06:42;;;;;;;;;;;17.20;99.90;;;;;;4928427;29;19938;-85
2023/09/28 02:09:08;;;;;;;;;;;17.10;99.90;;;;;;4927680;29;20289;-86
2023/09/28 02:11:37;;;;;;;;;;;17.10;99.90;;;;;;4913267;29;19937;-84
2023/09/28 02:14:03;;;;;;;;;;;17.00;99.90;;;;;;4927993;28;20378;-85
2023/09/28 02:16:29;;;;;;;;;;;17.00;99.90;;;;;;4928283;28;19962;-84
2023/09/28 02:18:55;;;;;;;;;;;16.90;99.90;;;;;;4935483;28;20539;-84
2023/09/28 02:21:20;;;;;;;;;;;16.80;99.90;;;;;;4928761;29;19927;-83
2023/09/28 02:23:46;;;;;;;;;;;16.80;99.90;;;;;;4928258;29;19941;-87
2023/09/28 02:26:11;;;;;;;;;;;16.80;99.90;;;;;;4927881;29;20029;-84
2023/09/28 02:28:37;;;;;;;;;;;16.70;99.90;;;;;;4933831;28;19989;-85
2023/09/28 02:31:04;;;;;;;;;;;16.70;99.90;;;;;;4938618;28;19992;-84
2023/09/28 02:33:30;;;;;;;;;;;16.60;99.90;;;;;;4938404;28;19927;-87
2023/09/28 02:35:55;;;;;;;;;;;16.60;99.90;;;;;;4933602;28;19927;-88
2023/09/28 02:38:21;;;;;;;;;;;16.50;99.90;;;;;;4926829;29;19966;-86
2023/09/28 02:40:46;;;;;;;;;;;16.50;99.90;;;;;;4930850;28;19930;-86
2023/09/28 02:43:12;;;;;;;;;;;16.50;99.90;;;;;;4927250;28;19927;-88
2023/09/28 02:45:38;;;;;;;;;;;16.50;99.90;;;;;;4928072;29;20641;-85
2023/09/28 02:48:03;;;;;;;;;;;16.40;99.90;;;;;;4942181;28;19931;-88
2023/09/28 02:50:29;;;;;;;;;;;16.40;99.90;;;;;;4927606;29;19938;-87
2023/09/28 02:52:55;;;;;;;;;;;16.40;99.90;;;;;;4927529;29;19930;-85
2023/09/28 02:55:21;;;;;;;;;;;16.40;99.90;;;;;;4926576;29;19957;-87
2023/09/28 02:57:48;;;;;;;;;;;16.40;99.90;;;;;;4926897;29;19927;-84
2023/09/28 03:00:19;;;;;;;;;;;16.30;99.90;;;;;;4924572;29;19949;-86
2023/09/28 03:02:45;;;;;;;;;;;16.30;99.90;;;;;;4927856;29;19935;-86
2023/09/28 03:05:11;;;;;;;;;;;16.30;99.90;;;;;;4927906;29;19942;-87
2023/09/28 03:07:39;;;;;;;;;;;16.30;99.90;;;;;;4925804;29;19927;-83
2023/09/28 03:10:05;;;;;;;;;;;16.30;99.90;;;;;;4936807;28;20286;-86
2023/09/28 03:12:31;;;;;;;;;;;16.30;99.90;;;;;;4911737;29;19931;-86
2023/09/28 03:14:56;;;;;;;;;;;16.30;99.90;;;;;;4942469;28;19931;-86
2023/09/28 03:17:22;;;;;;;;;;;16.30;99.90;;;;;;4926977;29;19934;-86
2023/09/28 03:19:48;;;;;;;;;;;16.30;99.90;;;;;;4927451;29;20030;-83
2023/09/28 03:22:13;;;;;;;;;;;16.30;99.90;;;;;;4927393;28;19926;-84
2023/09/28 03:24:39;;;;;;;;;;;16.30;99.90;;;;;;4942126;28;19931;-86
2023/09/28 03:27:08;;;;;;;;;;;16.30;99.90;;;;;;4925299;29;19935;-83
2023/09/28 03:29:33;;;;;;;;;;;16.30;99.90;;;;;;4924368;29;19970;-84
2023/09/28 03:31:59;;;;;;;;;;;16.20;99.90;;;;;;4911480;29;20064;-83
2023/09/28 03:34:24;;;;;;;;;;;16.20;99.90;;;;;;4927037;29;20310;-85
2023/09/28 03:36:50;;;;;;;;;;;16.20;99.90;;;;;;4929689;28;19997;-84
2023/09/28 03:39:16;;;;;;;;;;;16.10;99.90;;;;;;4927146;29;19935;-85
2023/09/28 03:41:41;;;;;;;;;;;16.10;99.90;;;;;;4934981;28;19935;-84
2023/09/28 03:44:07;;;;;;;;;;;16.10;99.90;;;;;;4912136;28;20140;-86
2023/09/28 03:46:33;;;;;;;;;;;16.00;99.90;;;;;;4895412;28;19930;-85
2023/09/28 03:48:58;;;;;;;;;;;16.00;99.90;;;;;;4926210;29;19930;-84
2023/09/28 03:51:24;;;;;;;;;;;15.90;99.90;;;;;;4937765;28;19927;-84
2023/09/28 03:53:49;;;;;;;;;;;15.90;99.90;;;;;;4934649;28;19927;-84
2023/09/28 03:56:15;;;;;;;;;;;15.80;99.90;;;;;;4923241;29;20421;-85
2023/09/28 03:58:41;;;;;;;;;;;15.80;99.90;;;;;;4927096;29;19927;-84
2023/09/28 04:01:07;;;;;;;;;;;15.70;99.90;;;;;;4926999;29;19949;-86
2023/09/28 04:03:34;;;;;;;;;;;15.70;99.90;;;;;;4926137;29;20029;-84
2023/09/28 04:06:00;;;;;;;;;;;15.60;99.90;;;;;;4926602;29;20490;-85
2023/09/28 04:08:26;;;;;;;;;;;15.60;99.90;;;;;;4927505;29;20009;-84
2023/09/28 04:10:51;;;;;;;;;;;15.50;99.90;;;;;;4927095;29;19927;-83
2023/09/28 04:13:17;;;;;;;;;;;15.50;99.90;;;;;;4910635;29;19977;-84
2023/09/28 04:15:43;;;;;;;;;;;15.50;99.90;;;;;;4933982;28;19934;-88
2023/09/28 04:18:08;;;;;;;;;;;15.50;99.90;;;;;;4925340;29;19938;-85
2023/09/28 04:20:35;;;;;;;;;;;15.50;99.90;;;;;;4944048;28;19987;-86
2023/09/28 04:23:05;;;;;;;;;;;15.50;99.90;;;;;;4927267;28;20013;-85
2023/09/28 04:25:32;;;;;;;;;;;15.50;99.90;;;;;;4924722;29;19942;-86
2023/09/28 04:27:57;;;;;;;;;;;15.50;99.90;;;;;;4935698;28;20384;-85
2023/09/28 04:30:23;;;;;;;;;;;15.50;99.90;;;;;;4927261;28;19927;-84
2023/09/28 04:32:50;;;;;;;;;;;15.50;99.90;;;;;;4926088;28;20293;-85
2023/09/28 04:35:16;;;;;;;;;;;15.50;99.90;;;;;;4925353;29;20499;-85
2023/09/28 04:37:42;;;;;;;;;;;15.50;99.90;;;;;;4925348;29;19927;-85
2023/09/28 04:40:09;;;;;;;;;;;15.50;99.90;;;;;;4924859;29;19927;-86
2023/09/28 04:42:35;;;;;;;;;;;15.50;99.90;;;;;;4926947;29;19930;-86
2023/09/28 04:45:00;;;;;;;;;;;15.50;99.90;;;;;;4924799;29;20827;-85
2023/09/28 04:47:26;;;;;;;;;;;15.60;99.90;;;;;;4908672;29;20017;-87
2023/09/28 04:49:51;;;;;;;;;;;15.60;99.90;;;;;;4926521;28;19933;-85
2023/09/28 04:52:17;;;;;;;;;;;15.60;99.90;;;;;;4925843;29;20024;-86
2023/09/28 04:54:43;;;;;;;;;;;15.60;99.90;;;;;;4911227;29;20053;-89
2023/09/28 04:57:08;;;;;;;;;;;15.60;99.90;;;;;;4905782;29;20374;-85
2023/09/28 04:59:40;;;;;;;;;;;15.50;99.90;;;;;;4935897;28;19931;-85
2023/09/28 05:02:06;;;;;;;;;;;15.50;99.90;;;;;;4924783;29;19927;-86
2023/09/28 05:04:31;;;;;;;;;;;15.60;99.90;;;;;;4912667;28;20638;-86
2023/09/28 05:06:59;;;;;;;;;;;15.60;99.90;;;;;;4925273;29;19934;-85
2023/09/28 05:09:28;;;;;;;;;;;15.50;99.90;;;;;;4936313;28;19939;-84
2023/09/28 05:11:56;;;;;;;;;;;15.60;99.90;;;;;;4926054;28;19942;-89
2023/09/28 05:14:24;;;;;;;;;;;15.60;99.90;;;;;;4926311;28;20061;-86
2023/09/28 05:16:50;;;;;;;;;;;15.50;99.90;;;;;;4925456;28;20021;-86
2023/09/28 05:19:15;;;;;;;;;;;15.50;99.90;;;;;;4926284;28;19935;-88
2023/09/28 05:21:41;;;;;;;;;;;15.50;99.90;;;;;;4925503;29;19969;-87
2023/09/28 05:24:06;;;;;;;;;;;15.60;99.90;;;;;;4921991;29;19972;-85
2023/09/28 05:26:32;;;;;;;;;;;15.50;99.90;;;;;;4924851;29;19934;-86
2023/09/28 05:28:58;;;;;;;;;;;15.60;99.90;;;;;;4934513;28;19931;-85
2023/09/28 05:31:24;;;;;;;;;;;15.50;99.90;;;;;;4926030;29;19938;-86
2023/09/28 05:33:50;;;;;;;;;;;15.50;99.90;;;;;;4925910;29;19927;-87
2023/09/28 05:36:15;;;;;;;;;;;15.50;99.90;;;;;;4925561;29;20017;-84
2023/09/28 05:38:41;;;;;;;;;;;15.50;99.90;;;;;;4925147;29;19942;-86
2023/09/28 05:41:07;;;;;;;;;;;15.50;99.90;;;;;;4934984;28;21704;-86
2023/09/28 05:43:32;;;;;;;;;;;15.50;99.90;;;;;;4925660;28;19935;-87
2023/09/28 05:45:58;;;;;;;;;;;15.50;99.90;;;;;;4925924;29;20010;-88
2023/09/28 05:48:24;;;;;;;;;;;15.50;99.90;;;;;;4925178;28;20277;-85
2023/09/28 05:50:50;;;;;;;;;;;15.50;99.90;;;;;;4924701;28;19927;-86
2023/09/28 05:53:15;;;;;;;;;;;15.50;99.90;;;;;;4925636;28;20005;-84
2023/09/28 05:55:41;;;;;;;;;;;15.50;99.90;;;;;;4927786;28;19942;-84
2023/09/28 05:58:06;;;;;;;;;;;15.50;99.90;;;;;;4925642;29;20378;-85
2023/09/28 06:00:32;;;;;;;;;;;15.50;99.90;;;;;;4934645;28;19927;-86
2023/09/28 06:02:58;;;;;;;;;;;15.50;99.90;;;;;;4932461;28;20041;-88
2023/09/28 06:05:23;;;;;;;;;;;15.50;99.90;;;;;;4923749;29;19934;-84
2023/09/28 06:07:49;;;;;;;;;;;15.50;99.90;;;;;;4929637;29;20358;-85
2023/09/28 06:10:15;;;;;;;;;;;15.50;99.90;;;;;;4926912;28;20383;-84
2023/09/28 06:12:40;;;;;;;;;;;15.60;99.90;;;;;;4923823;29;19931;-84
2023/09/28 06:15:07;;;;;;;;;;;15.60;99.90;;;;;;4926334;29;20397;-84
2023/09/28 06:17:33;;;;;;;;;;;15.60;99.90;;;;;;4934674;28;20012;-84
2023/09/28 06:19:58;;;;;;;;;;;15.60;99.90;;;;;;4933286;28;20025;-84
2023/09/28 06:22:24;;;;;;;;;;;15.60;99.90;;;;;;4934326;29;19927;-87
2023/09/28 06:24:50;;;;;;;;;;;15.70;99.90;;;;;;4934794;29;19935;-85
2023/09/28 06:27:15;;;;;;;;;;;15.70;99.90;;;;;;4934519;29;20374;-84
2023/09/28 06:29:41;;;;;;;;;;;15.80;99.90;;;;;;4929208;29;20031;-86
2023/09/28 06:32:06;;;;;;;;;;;15.80;99.90;;;;;;4926630;29;19981;-84
2023/09/28 06:34:32;;;;;;;;;;;15.80;99.90;;;;;;4933298;28;20472;-90
2023/09/28 06:36:58;;;;;;;;;;;15.80;99.90;;;;;;4929447;28;19974;-87
2023/09/28 06:39:23;;;;;;;;;;;15.90;99.90;;;;;;4928919;28;19930;-85
2023/09/28 06:41:49;;;;;;;;;;;15.90;99.90;;;;;;4928331;28;19927;-85
2023/09/28 06:44:14;;;;;;;;;;;16.00;99.90;;;;;;4929420;28;20041;-87
2023/09/28 06:46:40;;;;;;;;;;;16.00;99.90;;;;;;4928263;28;21503;-85
2023/09/28 06:49:08;;;;;;;;;;;16.00;99.90;;;;;;4989692;28;20017;-86
2023/09/28 06:51:34;;;;;;;;;;;16.10;99.90;;;;;;4932236;28;19934;-87
2023/09/28 06:54:00;;;;;;;;;;;16.10;99.90;;;;;;4933350;29;19945;-86
2023/09/28 06:56:26;;;;;;;;;;;16.20;99.90;;;;;;4930124;28;20013;-90
2023/09/28 06:58:52;;;;;;;;;;;16.20;99.90;;;;;;4916435;28;19989;-87
2023/09/28 07:01:18;;;;;;;;;;;16.30;99.90;;;;;;4921871;28;19931;-87
2023/09/28 07:03:43;;;;;;;;;;;16.30;99.90;;;;;;4918812;28;20624;-85
2023/09/28 07:06:09;;;;;;;;;;;16.40;99.90;;;;;;4916162;29;19962;-87
2023/09/28 07:08:35;;;;;;;;;;;16.40;99.90;;;;;;4915915;29;20685;-87
2023/09/28 07:11:01;;;;;;;;;;;16.50;99.90;;;;;;4920310;29;19965;-85
2023/09/28 07:13:27;;;;;;;;;;;16.50;99.90;;;;;;4925123;28;19946;-85
2023/09/28 07:15:52;;;;;;;;;;;16.60;99.90;;;;;;4912753;29;20290;-87
2023/09/28 07:18:18;;;;;;;;;;;16.70;99.90;;;;;;4915747;29;19992;-86
2023/09/28 07:20:44;;;;;;;;;;;16.80;99.90;;;;;;4919687;29;19977;-87
2023/09/28 07:23:09;;;;;;;;;;;16.90;99.90;;;;;;4927963;28;19927;-85
2023/09/28 07:25:35;;;;;;;;;;;17.10;99.90;;;;;;4928999;29;19952;-87
2023/09/28 07:28:01;;;;;;;;;;;17.40;99.90;;;;;;4921355;29;19927;-87
2023/09/28 07:30:26;;;;;;;;;;;17.80;99.90;;;;;;4912277;28;19981;-86
2023/09/28 07:32:52;;;;;;;;;;;18.10;99.90;;;;;;4915621;29;19938;-87
2023/09/28 07:35:19;;;;;;;;;;;18.20;99.90;;;;;;4933868;28;19934;-87
2023/09/28 07:37:44;;;;;;;;;;;18.10;99.90;;;;;;4932089;28;20435;-87
2023/09/28 07:40:12;;;;;;;;;;;18.10;99.90;;;;;;4933728;28;19977;-85
2023/09/28 07:42:38;;;;;;;;;;;18.00;99.90;;;;;;4932807;29;19942;-87
2023/09/28 07:45:05;;;;;;;;;;;17.90;99.90;;;;;;4926523;29;19931;-85
2023/09/28 07:47:30;;;;;;;;;;;17.80;99.90;;;;;;4932159;29;19927;-85
2023/09/28 07:49:56;;;;;;;;;;;17.80;99.90;;;;;;4926434;29;19935;-86
2023/09/28 07:52:21;;;;;;;;;;;17.80;99.90;;;;;;4925077;28;19934;-86
2023/09/28 07:54:47;;;;;;;;;;;17.80;99.90;;;;;;4913458;28;20488;-89
2023/09/28 07:57:13;;;;;;;;;;;18.00;99.90;;;;;;4915488;29;19931;-87
2023/09/28 07:59:41;;;;;;;;;;;18.10;99.90;;;;;;4912915;29;19934;-87
2023/09/28 08:02:09;;;;;;;;;;;18.20;99.90;;;;;;4916801;28;20010;-86
2023/09/28 08:04:36;;;;;;;;;;;18.30;99.90;;;;;;4910778;28;19938;-88
2023/09/28 08:07:01;;;;;;;;;;;18.40;99.90;;;;;;4916738;29;19938;-87
2023/09/28 08:09:27;;;;;;;;;;;18.60;99.90;;;;;;4930188;29;19931;-86
2023/09/28 08:11:53;;;;;;;;;;;18.70;99.90;;;;;;4932501;29;19927;-85
2023/09/28 08:14:20;;;;;;;;;;;18.80;99.90;;;;;;4934569;28;20386;-85
2023/09/28 08:16:46;;;;;;;;;;;18.80;99.90;;;;;;4931316;29;19931;-85
2023/09/28 08:19:12;;;;;;;;;;;18.80;99.90;;;;;;4925598;29;19926;-86
2023/09/28 08:21:38;;;;;;;;;;;18.70;99.90;;;;;;4917581;28;19927;-87
2023/09/28 08:24:04;;;;;;;;;;;18.70;99.90;;;;;;4915313;29;20334;-88
2023/09/28 08:26:30;;;;;;;;;;;18.60;99.90;;;;;;4932883;28;19931;-87
2023/09/28 08:28:58;;;;;;;;;;;18.60;99.90;;;;;;4913865;29;19934;-88
2023/09/28 08:31:24;;;;;;;;;;;18.50;99.90;;;;;;4930783;28;19927;-88
2023/09/28 08:33:50;;;;;;;;;;;18.50;99.90;;;;;;4911856;28;19935;-87
2023/09/28 08:36:16;;;;;;;;;;;18.60;99.90;;;;;;4915988;29;19938;-86
2023/09/28 08:38:41;;;;;;;;;;;18.70;99.90;;;;;;4920194;28;20305;-88
2023/09/28 08:41:09;;;;;;;;;;;18.90;99.90;;;;;;4919655;29;19939;-87
2023/09/28 08:43:47;;;;;;;;;;;19.10;99.90;;;;;;4919686;29;20397;-87
2023/09/28 08:46:14;;;;;;;;;;;19.20;99.90;;;;;;4899747;29;20009;-88
2023/09/28 08:48:43;;;;;;;;;;;19.30;99.90;;;;;;4916655;28;19966;-88
2023/09/28 08:51:10;;;;;;;;;;;19.40;99.90;;;;;;4914989;29;19939;-89
2023/09/28 08:53:38;;;;;;;;;;;19.50;99.90;;;;;;4924907;29;19966;-86
2023/09/28 08:56:04;;;;;;;;;;;19.40;99.90;;;;;;4941833;28;19976;-86
2023/09/28 08:58:34;;;;;;;;;;;19.40;99.90;;;;;;4932679;29;19981;-86
2023/09/28 09:01:00;;;;;;;;;;;19.40;99.90;;;;;;4930227;28;19934;-85
2023/09/28 09:03:27;;;;;;;;;;;19.30;99.90;;;;;;4930291;29;19931;-86
2023/09/28 09:05:53;;;;;;;;;;;19.30;99.90;;;;;;4931409;29;20068;-86
2023/09/28 09:08:20;;;;;;;;;;;19.40;99.90;;;;;;4930933;28;20398;-86
2023/09/28 09:10:46;;;;;;;;;;;19.40;99.90;;;;;;4930026;28;19931;-84
2023/09/28 09:13:16;;;;;;;;;;;19.40;99.90;;;;;;4931943;29;19977;-85
2023/09/28 09:15:42;;;;;;;;;;;19.50;99.90;;;;;;4928758;29;20354;-86
2023/09/28 09:18:08;;;;;;;;;;;19.50;99.90;;;;;;4931297;29;19973;-84
2023/09/28 09:20:33;;;;;;;;;;;19.50;99.90;;;;;;4932737;29;19927;-85
2023/09/28 09:23:12;;;;;;;;;;;19.50;99.90;;;;;;4930549;29;19945;-85
2023/09/28 09:25:41;;;;;;;;;;;19.60;99.90;;;;;;4925530;29;19927;-86
2023/09/28 09:28:07;;;;;;;;;;;19.60;99.90;;;;;;4932098;29;20412;-88
2023/09/28 09:30:35;;;;;;;;;;;19.70;99.90;;;;;;4932241;29;19969;-86
2023/09/28 09:33:01;;;;;;;;;;;19.70;99.90;;;;;;4931286;29;19927;-86
2023/09/28 09:35:28;;;;;;;;;;;19.80;99.90;;;;;;4931088;29;19978;-87
2023/09/28 09:37:55;;;;;;;;;;;19.90;99.90;;;;;;4932285;29;19927;-87
2023/09/28 09:40:21;;;;;;;;;;;19.90;99.90;;;;;;4931449;29;19962;-85
2023/09/28 09:42:46;;;;;;;;;;;19.90;99.90;;;;;;4932179;29;19981;-88
2023/09/28 09:45:12;;;;;;;;;;;19.90;99.90;;;;;;4933370;28;20030;-86
2023/09/28 09:47:42;;;;;;;;;;;20.00;99.90;;;;;;4931123;29;20017;-86
2023/09/28 09:50:08;;;;;;;;;;;20.30;99.90;;;;;;4934274;29;19977;-87
2023/09/28 09:52:34;;;;;;;;;;;20.50;99.90;;;;;;4933443;29;19934;-86
2023/09/28 09:54:59;;;;;;;;;;;20.60;99.90;;;;;;4934049;29;20336;-85
2023/09/28 09:57:27;;;;;;;;;;;20.60;99.90;;;;;;4934797;29;19937;-85
2023/09/28 09:59:53;;;;;;;;;;;20.50;99.90;;;;;;4936025;28;20441;-87
2023/09/28 10:02:25;;;;;;;;;;;20.30;99.90;;;;;;4933106;29;20013;-85
2023/09/28 10:04:54;;;;;;;;;;;20.20;99.90;;;;;;4934834;29;20300;-84
2023/09/28 10:07:29;;;;;;;;;;;20.00;99.90;;;;;;4935077;29;19926;-87
2023/09/28 10:09:55;;;;;;;;;;;19.90;99.90;;;;;;4935188;29;20297;-84
2023/09/28 10:12:21;;;;;;;;;;;19.90;99.90;;;;;;4940333;29;19934;-84
2023/09/28 10:14:47;;;;;;;;;;;19.90;99.90;;;;;;4934753;28;19927;-83
2023/09/28 10:17:13;;;;;;;;;;;20.00;99.90;;;;;;4918038;28;20399;-86
2023/09/28 10:19:39;;;;;;;;;;;20.00;99.90;;;;;;4933211;29;19981;-88
2023/09/28 10:22:05;;;;;;;;;;;20.00;99.90;;;;;;4932971;29;19934;-85
2023/09/28 10:24:35;;;;;;;;;;;20.10;99.90;;;;;;4930608;29;19926;-86
2023/09/28 10:27:08;;;;;;;;;;;20.10;99.90;;;;;;4933129;29;19927;-84
2023/09/28 10:29:34;;;;;;;;;;;20.10;99.90;;;;;;4933084;29;20336;-87
2023/09/28 10:32:01;;;;;;;;;;;20.30;99.90;;;;;;4932845;29;19927;-84
2023/09/28 10:34:27;;;;;;;;;;;20.30;99.90;;;;;;4931721;29;19934;-87
2023/09/28 10:37:07;;;;;;;;;;;20.50;99.90;;;;;;4933825;29;20210;-86
2023/09/28 10:39:33;;;;;;;;;;;20.60;99.90;;;;;;4934047;28;19931;-84
2023/09/28 10:42:06;;;;;;;;;;;20.70;99.90;;;;;;4934623;29;20337;-86
2023/09/28 10:44:31;;;;;;;;;;;20.90;99.90;;;;;;4932488;29;19942;-89
2023/09/28 10:46:57;;;;;;;;;;;20.90;99.90;;;;;;4933498;28;19927;-85
2023/09/28 10:49:24;;;;;;;;;;;20.80;99.90;;;;;;4934628;29;19934;-87
2023/09/28 10:51:51;;;;;;;;;;;20.70;99.90;;;;;;4917839;29;20398;-87
2023/09/28 10:54:17;;;;;;;;;;;20.60;99.90;;;;;;4933319;29;19930;-84
2023/09/28 10:56:42;;;;;;;;;;;20.60;99.90;;;;;;4934019;28;19927;-86
2023/09/28 10:59:11;;;;;;;;;;;20.50;99.90;;;;;;4932503;29;20428;-86
2023/09/28 11:01:40;;;;;;;;;;;20.60;99.90;;;;;;4934441;29;19938;-86
2023/09/28 11:04:05;;;;;;;;;;;20.50;99.90;;;;;;4933823;29;19945;-89
2023/09/28 11:06:33;;;;;;;;;;;20.50;99.90;;;;;;4901184;29;19935;-85
2023/09/28 11:09:01;;;;;;;;;;;20.50;99.90;;;;;;4934291;29;19927;-87
2023/09/28 11:11:30;;;;;;;;;;;20.50;99.90;;;;;;4934243;29;19935;-87
2023/09/28 11:13:57;;;;;;;;;;;20.40;99.90;;;;;;4934152;29;19966;-86
2023/09/28 11:16:22;;;;;;;;;;;20.40;99.90;;;;;;4933235;29;19927;-85
2023/09/28 11:18:49;;;;;;;;;;;20.40;99.90;;;;;;4934124;29;19931;-87
2023/09/28 11:21:15;;;;;;;;;;;20.60;99.90;;;;;;4934180;29;19933;-85
2023/09/28 11:23:40;;;;;;;;;;;20.70;99.90;;;;;;4933714;29;19926;-85
2023/09/28 11:26:08;;;;;;;;;;;20.80;99.90;;;;;;4928219;29;19931;-85
2023/09/28 11:28:34;;;;;;;;;;;20.80;99.90;;;;;;4932042;28;20002;-85
2023/09/28 11:31:03;;;;;;;;;;;20.80;99.90;;;;;;4932957;29;20065;-84
2023/09/28 11:33:28;;;;;;;;;;;20.80;99.90;;;;;;4933738;29;19953;-85
2023/09/28 11:35:54;;;;;;;;;;;20.80;99.90;;;;;;4931585;29;20326;-84
2023/09/28 11:38:20;;;;;;;;;;;20.80;99.90;;;;;;4931021;29;19978;-86
2023/09/28 11:40:47;;;;;;;;;;;20.80;99.90;;;;;;4932650;28;20028;-85
2023/09/28 11:43:13;;;;;;;;;;;20.80;99.90;;;;;;4933405;29;20404;-85
2023/09/28 11:45:39;;;;;;;;;;;20.80;99.90;;;;;;4925075;28;19973;-85
2023/09/28 11:48:10;;;;;;;;;;;20.90;99.90;;;;;;4931446;29;20393;-86
2023/09/28 11:50:37;;;;;;;;;;;20.90;99.90;;;;;;4932266;29;19985;-85
2023/09/28 11:53:06;;;;;;;;;;;20.90;99.90;;;;;;4933200;29;19926;-85
2023/09/28 11:55:32;;;;;;;;;;;20.90;99.90;;;;;;4932430;29;19930;-85
2023/09/28 11:57:59;;;;;;;;;;;21.00;99.90;;;;;;4930987;29;19972;-85
2023/09/28 12:00:24;;;;;;;;;;;21.10;99.90;;;;;;4930821;29;19943;-85
2023/09/28 12:02:50;;;;;;;;;;;21.10;99.90;;;;;;4932906;28;19934;-85
2023/09/28 12:05:17;;;;;;;;;;;21.10;99.90;;;;;;4933671;29;19938;-85
2023/09/28 12:07:43;;;;;;;;;;;21.10;99.90;;;;;;4931268;29;19931;-86
2023/09/28 12:10:12;;;;;;;;;;;21.10;99.90;;;;;;4931759;29;19938;-86
2023/09/28 12:12:40;;;;;;;;;;;21.10;99.90;;;;;;4933127;29;19927;-86
2023/09/28 12:15:10;;;;;;;;;;;21.20;99.90;;;;;;4933163;29;19935;-85
2023/09/28 12:17:39;;;;;;;;;;;21.30;99.90;;;;;;4933404;29;19937;-84
2023/09/28 12:20:09;;;;;;;;;;;21.30;99.90;;;;;;4928803;28;19927;-86
2023/09/28 12:22:38;;;;;;;;;;;21.30;99.90;;;;;;4932632;29;19931;-86
2023/09/28 12:25:05;;;;;;;;;;;21.30;99.90;;;;;;4931982;29;19927;-86
2023/09/28 12:27:34;;;;;;;;;;;21.20;99.90;;;;;;4932603;29;19934;-85
2023/09/28 12:29:59;;;;;;;;;;;21.20;99.90;;;;;;4932067;29;19973;-86
2023/09/28 12:32:29;;;;;;;;;;;21.10;99.90;;;;;;4931886;28;19966;-86
2023/09/28 12:34:55;;;;;;;;;;;21.10;99.90;;;;;;4931783;29;20282;-85
2023/09/28 12:37:21;;;;;;;;;;;21.10;99.90;;;;;;4932528;29;19934;-85
2023/09/28 12:39:48;;;;;;;;;;;21.20;99.90;;;;;;4931671;29;19938;-85
2023/09/28 12:42:15;;;;;;;;;;;21.20;99.90;;;;;;4932651;29;19954;-86
2023/09/28 12:44:42;;;;;;;;;;;21.20;99.90;;;;;;4931743;29;19934;-87
2023/09/28 12:47:08;;;;;;;;;;;21.20;99.90;;;;;;4932699;29;19945;-86
2023/09/28 12:49:33;;;;;;;;;;;21.10;99.90;;;;;;4932672;29;20325;-86
2023/09/28 12:51:59;;;;;;;;;;;21.10;99.90;;;;;;4930159;29;19980;-87
2023/09/28 12:54:25;;;;;;;;;;;21.20;99.90;;;;;;4932595;29;20385;-85
2023/09/28 12:56:52;;;;;;;;;;;21.20;99.90;;;;;;4931400;29;19927;-85
2023/09/28 12:59:17;;;;;;;;;;;21.10;99.90;;;;;;4932496;29;19931;-87
2023/09/28 13:01:43;;;;;;;;;;;21.10;99.90;;;;;;4931232;29;19972;-85
2023/09/28 13:04:08;;;;;;;;;;;21.10;99.90;;;;;;4930612;29;19978;-86
2023/09/28 13:06:34;;;;;;;;;;;21.10;99.90;;;;;;4931927;29;19980;-86
2023/09/28 13:09:00;;;;;;;;;;;21.20;99.90;;;;;;4928664;28;20274;-86
2023/09/28 13:11:27;;;;;;;;;;;21.20;99.90;;;;;;4931516;29;20447;-85
2023/09/28 13:13:53;;;;;;;;;;;21.20;99.90;;;;;;4932223;29;19933;-85
2023/09/28 13:16:21;;;;;;;;;;;21.30;99.90;;;;;;4932794;28;20357;-86
2023/09/28 13:18:47;;;;;;;;;;;21.30;99.90;;;;;;4932750;29;19944;-85
2023/09/28 13:21:13;;;;;;;;;;;21.30;99.90;;;;;;4931164;29;19927;-86
2023/09/28 13:23:39;;;;;;;;;;;21.40;99.90;;;;;;4936265;29;19926;-85
2023/09/28 13:26:05;;;;;;;;;;;21.30;99.90;;;;;;4938141;29;19927;-85
2023/09/28 13:28:31;;;;;;;;;;;21.30;99.90;;;;;;4946508;29;19935;-85
2023/09/28 13:30:57;;;;;;;;;;;21.30;99.90;;;;;;4935621;29;20309;-85
2023/09/28 13:33:23;;;;;;;;;;;21.30;99.90;;;;;;4929463;29;19978;-85
2023/09/28 13:35:49;;;;;;;;;;;21.20;99.90;;;;;;4937566;29;19933;-87
2023/09/28 13:38:16;;;;;;;;;;;21.20;99.90;;;;;;4937041;29;20345;-85
2023/09/28 13:40:43;;;;;;;;;;;21.00;99.90;;;;;;4937118;29;19926;-86
2023/09/28 13:43:09;;;;;;;;;;;20.90;99.90;;;;;;4937536;29;19969;-86
2023/09/28 13:45:36;;;;;;;;;;;20.90;99.90;;;;;;4938334;29;19931;-85
2023/09/28 13:48:03;;;;;;;;;;;20.80;99.90;;;;;;4937504;29;19977;-85
2023/09/28 13:50:28;;;;;;;;;;;20.80;99.90;;;;;;4937271;29;19931;-87
2023/09/28 13:52:57;;;;;;;;;;;20.90;99.90;;;;;;4921538;29;19934;-85
2023/09/28 13:55:23;;;;;;;;;;;20.90;99.90;;;;;;4935836;29;19949;-86
2023/09/28 13:57:49;;;;;;;;;;;20.90;99.90;;;;;;4938062;29;19930;-84
2023/09/28 14:02:54;;;;;;;;;;;20.90;99.90;;;;;;4938203;29;19931;-85
2023/09/28 14:05:19;;;;;;;;;;;20.80;99.90;;;;;;4937028;29;19926;-85
2023/09/28 14:07:45;;;;;;;;;;;20.80;99.90;;;;;;4937971;29;19942;-86
2023/09/28 14:10:12;;;;;;;;;;;20.80;99.90;;;;;;4937208;29;19930;-85
2023/09/28 14:12:38;;;;;;;;;;;20.60;99.90;;;;;;4936755;29;20290;-85
2023/09/28 14:15:06;;;;;;;;;;;20.70;99.90;;;;;;4935719;29;19927;-87